Time;durP1;ratioP1;P1;durP2;ratioP2;P2;SDS_P1;SDS_P2;PMS_P1;PMS_P2;Temp;Humidity;BMP_temperature;BMP_pressure;BME280_temperature;BME280_humidity;BME280_pressure;Samples;Min_cycle;Max_cycle;Signal;HPM_P1;HPM_P2
2023/03/09 00:01:25;;;;;;;4.57;2.20;;;9.90;99.90;;;;;;4983101;28;20556;-71
2023/03/09 00:04:13;;;;;;;4.60;2.87;;;10.00;99.90;;;;;;4981975;28;20500;-71
2023/03/09 00:06:59;;;;;;;3.50;2.40;;;10.10;99.90;;;;;;4996746;28;20551;-71
2023/03/09 00:09:45;;;;;;;4.73;2.57;;;10.20;99.90;;;;;;4982285;28;20449;-72
2023/03/09 00:12:31;;;;;;;3.57;2.30;;;10.20;99.90;;;;;;4988792;28;20477;-71
2023/03/09 00:15:17;;;;;;;3.10;2.33;;;10.20;99.90;;;;;;4993767;28;20569;-71
2023/03/09 00:18:04;;;;;;;4.67;2.60;;;10.30;99.90;;;;;;4991127;28;20445;-71
2023/03/09 00:20:50;;;;;;;3.13;2.47;;;10.20;99.90;;;;;;4981321;28;20448;-71
2023/03/09 00:23:36;;;;;;;3.50;2.30;;;10.20;99.90;;;;;;4984420;28;20476;-71
2023/03/09 00:26:21;;;;;;;3.33;2.20;;;10.20;99.90;;;;;;4993011;28;20556;-70
2023/03/09 00:29:07;;;;;;;2.30;2.00;;;10.30;99.90;;;;;;4991954;28;20502;-70
2023/03/09 00:31:53;;;;;;;4.23;2.47;;;10.20;99.90;;;;;;4988916;28;20449;-70
2023/03/09 00:34:40;;;;;;;2.57;2.13;;;10.20;99.90;;;;;;4988472;28;20460;-71
2023/03/09 00:37:25;;;;;;;3.50;2.30;;;10.10;99.90;;;;;;4986522;28;20445;-71
2023/03/09 00:40:12;;;;;;;3.23;2.23;;;10.20;99.90;;;;;;4984272;28;20457;-71
2023/03/09 00:42:57;;;;;;;3.37;1.93;;;10.20;99.90;;;;;;4987703;28;20451;-71
2023/03/09 00:45:43;;;;;;;4.63;2.77;;;10.10;99.90;;;;;;4989203;28;20983;-71
2023/03/09 00:48:28;;;;;;;2.90;2.40;;;10.10;99.90;;;;;;4991672;28;20897;-71
2023/03/09 00:51:15;;;;;;;2.63;2.40;;;10.10;99.90;;;;;;4983786;28;20440;-72
2023/03/09 00:54:01;;;;;;;4.60;1.70;;;10.10;99.90;;;;;;4989850;28;20511;-71
2023/03/09 00:56:47;;;;;;;2.90;2.10;;;10.10;99.90;;;;;;4986504;28;20835;-71
2023/03/09 00:59:32;;;;;;;2.60;2.20;;;10.00;99.90;;;;;;4984220;28;20504;-71
2023/03/09 01:02:19;;;;;;;4.10;2.60;;;10.00;99.90;;;;;;4984009;28;20942;-71
2023/03/09 01:05:05;;;;;;;5.37;3.37;;;10.00;99.90;;;;;;4994778;28;20527;-71
2023/03/09 01:07:52;;;;;;;3.90;3.50;;;10.00;99.90;;;;;;4997987;28;20452;-71
2023/03/09 01:10:39;;;;;;;5.07;3.47;;;10.00;99.90;;;;;;4988555;28;20449;-71
2023/03/09 01:13:25;;;;;;;6.40;4.63;;;10.00;99.90;;;;;;4985484;28;20495;-71
2023/03/09 01:16:11;;;;;;;3.93;3.30;;;10.00;99.90;;;;;;4983478;28;21126;-71
2023/03/09 01:18:56;;;;;;;3.97;3.40;;;10.10;99.90;;;;;;4985446;28;20444;-71
2023/03/09 01:21:42;;;;;;;4.90;3.90;;;10.10;99.90;;;;;;4995032;28;20920;-71
2023/03/09 01:24:29;;;;;;;5.97;5.47;;;10.10;99.90;;;;;;4983142;28;20594;-71
2023/03/09 01:27:15;;;;;;;5.83;3.63;;;10.10;99.90;;;;;;4992744;28;20444;-71
2023/03/09 01:30:00;;;;;;;5.63;3.97;;;10.10;99.90;;;;;;4986610;28;20452;-70
2023/03/09 01:32:47;;;;;;;5.13;3.73;;;10.10;99.90;;;;;;5006337;22;20535;-73
2023/03/09 01:35:32;;;;;;;7.07;2.80;;;10.00;99.90;;;;;;5023567;28;20450;-71
2023/03/09 01:38:18;;;;;;;4.03;3.20;;;10.00;99.90;;;;;;5033048;28;20924;-71
2023/03/09 01:41:06;;;;;;;3.73;2.40;;;10.00;99.90;;;;;;5027484;28;20450;-71
2023/03/09 01:43:52;;;;;;;3.43;2.00;;;10.10;99.90;;;;;;5020142;28;21102;-71
2023/03/09 01:46:46;;;;;;;6.93;2.10;;;10.00;99.90;;;;;;5012428;28;21051;-72
2023/03/09 01:49:37;;;;;;;4.63;2.53;;;10.10;99.90;;;;;;5007851;28;20529;-71
2023/03/09 01:52:26;;;;;;;2.53;1.50;;;10.00;99.90;;;;;;5011279;28;20807;-72
2023/03/09 01:55:15;;;;;;;4.40;1.40;;;10.00;99.90;;;;;;5016076;28;20459;-72
2023/03/09 01:58:05;;;;;;;3.37;1.30;;;10.00;99.90;;;;;;5005206;28;21068;-71
2023/03/09 02:00:53;;;;;;;2.90;1.17;;;10.00;99.90;;;;;;5010880;28;20459;-72
2023/03/09 02:03:43;;;;;;;1.87;1.30;;;10.00;99.90;;;;;;5007949;28;21068;-71
2023/03/09 02:06:30;;;;;;;8.13;1.27;;;10.00;99.90;;;;;;5008227;28;20439;-71
2023/03/09 02:09:24;;;;;;;2.23;1.20;;;10.00;99.90;;;;;;5004428;28;20449;-73
2023/03/09 02:12:16;;;;;;;2.97;1.17;;;10.10;99.90;;;;;;5011839;28;20447;-71
2023/03/09 02:15:04;;;;;;;3.63;0.97;;;10.10;99.90;;;;;;5001531;28;20782;-71
2023/03/09 02:17:50;;;;;;;1.83;1.30;;;10.10;99.90;;;;;;5009775;28;20484;-71
2023/03/09 02:20:44;;;;;;;1.80;1.10;;;10.10;99.90;;;;;;5007303;28;20984;-71
2023/03/09 02:23:37;;;;;;;3.30;2.23;;;10.10;99.90;;;;;;5010132;28;20517;-71
2023/03/09 02:26:27;;;;;;;4.10;2.40;;;10.00;99.90;;;;;;5006568;28;20861;-71
2023/03/09 02:29:15;;;;;;;2.60;2.40;;;10.00;99.90;;;;;;5001202;28;20431;-71
2023/03/09 02:32:00;;;;;;;2.87;2.60;;;9.90;99.90;;;;;;5011353;28;20494;-71
2023/03/09 02:34:47;;;;;;;4.30;3.13;;;10.00;99.90;;;;;;5012749;28;20617;-71
2023/03/09 02:37:35;;;;;;;6.43;3.73;;;9.90;99.90;;;;;;5010553;28;20475;-71
2023/03/09 02:40:38;;;;;;;4.03;3.40;;;9.90;99.90;;;;;;5006013;28;20463;-71
2023/03/09 02:43:29;;;;;;;4.40;3.10;;;9.90;99.90;;;;;;5011704;28;20481;-71
2023/03/09 02:46:16;;;;;;;5.20;2.67;;;9.90;99.90;;;;;;5014623;28;20442;-71
2023/03/09 02:49:02;;;;;;;3.50;2.63;;;9.80;99.90;;;;;;5008871;28;20820;-71
2023/03/09 02:51:48;;;;;;;8.10;3.00;;;9.80;99.90;;;;;;5014184;28;20815;-72
2023/03/09 02:54:34;;;;;;;2.50;2.30;;;9.90;99.90;;;;;;5010084;28;20451;-72
2023/03/09 02:57:19;;;;;;;2.50;2.20;;;9.90;99.90;;;;;;5009087;28;20438;-71
2023/03/09 03:00:08;;;;;;;4.07;1.83;;;9.90;99.90;;;;;;5010422;28;20522;-72
2023/03/09 03:02:55;;;;;;;3.57;2.40;;;9.90;99.90;;;;;;5017509;28;20829;-71
2023/03/09 03:05:41;;;;;;;7.03;2.57;;;9.90;99.90;;;;;;5022503;28;20496;-71
2023/03/09 03:08:26;;;;;;;3.80;3.17;;;9.90;99.90;;;;;;5008892;28;20915;-72
2023/03/09 03:11:12;;;;;;;4.87;3.40;;;9.80;99.90;;;;;;5013175;28;20466;-71
2023/03/09 03:13:58;;;;;;;5.93;3.40;;;9.80;99.90;;;;;;5018191;28;20515;-71
2023/03/09 03:16:44;;;;;;;4.70;3.07;;;9.80;99.90;;;;;;5010756;28;20471;-71
2023/03/09 03:19:32;;;;;;;3.23;2.93;;;9.90;99.90;;;;;;5008071;28;20448;-71
2023/03/09 03:22:17;;;;;;;3.23;2.93;;;9.90;99.90;;;;;;5011488;28;20439;-71
2023/03/09 03:25:03;;;;;;;2.87;2.20;;;9.90;99.90;;;;;;5016242;28;20461;-71
2023/03/09 03:27:49;;;;;;;3.07;1.90;;;9.90;99.90;;;;;;5004917;28;20457;-74
2023/03/09 03:30:35;;;;;;;3.60;2.40;;;9.80;99.90;;;;;;5010862;28;21023;-72
2023/03/09 03:33:21;;;;;;;4.47;2.20;;;9.80;99.90;;;;;;5012443;28;21122;-71
2023/03/09 03:36:08;;;;;;;4.03;2.10;;;9.80;99.90;;;;;;5009319;28;20810;-71
2023/03/09 03:38:54;;;;;;;4.30;1.83;;;9.90;99.90;;;;;;5006047;28;20445;-71
2023/03/09 03:41:40;;;;;;;4.80;1.93;;;9.90;99.90;;;;;;5009217;28;20438;-71
2023/03/09 03:44:26;;;;;;;3.70;1.93;;;9.80;99.90;;;;;;5016858;28;20471;-72
2023/03/09 03:47:11;;;;;;;2.83;2.00;;;9.80;99.90;;;;;;5011492;28;20495;-71
2023/03/09 03:49:57;;;;;;;3.60;2.10;;;9.80;99.90;;;;;;5008979;28;20472;-71
2023/03/09 03:52:44;;;;;;;3.60;2.27;;;9.70;99.90;;;;;;5009100;28;20455;-71
2023/03/09 03:55:29;;;;;;;3.40;1.93;;;9.70;99.90;;;;;;5008294;28;20452;-71
2023/03/09 03:58:15;;;;;;;3.90;1.70;;;9.70;99.90;;;;;;5008111;28;20617;-71
2023/03/09 04:01:00;;;;;;;4.13;1.77;;;9.80;99.90;;;;;;5012088;28;20490;-72
2023/03/09 04:03:46;;;;;;;7.30;2.07;;;9.80;99.90;;;;;;5011137;28;20519;-70
2023/03/09 04:06:32;;;;;;;3.67;2.20;;;9.80;99.90;;;;;;5006866;28;20447;-72
2023/03/09 04:09:19;;;;;;;4.03;1.57;;;9.80;99.90;;;;;;5008922;28;20460;-71
2023/03/09 04:12:05;;;;;;;3.93;1.90;;;9.80;99.90;;;;;;5010827;28;20444;-72
2023/03/09 04:14:51;;;;;;;2.57;1.87;;;9.80;99.90;;;;;;5007253;28;20446;-71
2023/03/09 04:17:36;;;;;;;2.10;1.50;;;9.80;99.90;;;;;;5005052;28;20468;-71
2023/03/09 04:20:22;;;;;;;3.77;2.07;;;9.80;99.90;;;;;;5011526;28;20418;-71
2023/03/09 04:23:08;;;;;;;2.20;1.60;;;9.80;99.90;;;;;;5009872;28;20522;-71
2023/03/09 04:25:57;;;;;;;3.73;2.20;;;9.80;99.90;;;;;;5005990;28;20953;-74
2023/03/09 04:28:42;;;;;;;4.07;2.10;;;9.70;99.90;;;;;;5007189;28;20460;-71
2023/03/09 04:31:28;;;;;;;3.70;2.40;;;9.80;99.90;;;;;;5008901;28;20447;-71
2023/03/09 04:34:14;;;;;;;4.33;2.43;;;9.80;99.90;;;;;;5009524;28;20844;-71
2023/03/09 04:36:59;;;;;;;3.50;2.10;;;9.80;99.90;;;;;;5003062;28;20520;-71
2023/03/09 04:39:45;;;;;;;4.33;2.17;;;9.80;99.90;;;;;;5011530;28;20451;-72
2023/03/09 04:42:33;;;;;;;7.07;2.47;;;9.80;99.90;;;;;;5009765;28;20447;-72
2023/03/09 04:45:19;;;;;;;3.07;2.10;;;9.80;99.90;;;;;;5008044;28;20824;-71
2023/03/09 04:48:04;;;;;;;2.97;2.10;;;9.80;99.90;;;;;;5008297;28;20443;-71
2023/03/09 04:50:50;;;;;;;4.43;2.37;;;9.80;99.90;;;;;;5016596;28;20447;-71
2023/03/09 04:53:36;;;;;;;2.10;1.90;;;9.80;99.90;;;;;;5007182;28;20575;-71
2023/03/09 04:56:22;;;;;;;5.13;2.50;;;9.80;99.90;;;;;;5010272;28;20921;-72
2023/03/09 04:59:08;;;;;;;4.80;2.53;;;9.80;99.90;;;;;;5013017;28;20518;-73
2023/03/09 05:01:54;;;;;;;4.23;2.47;;;9.80;99.90;;;;;;5006209;28;20985;-71
2023/03/09 05:04:40;;;;;;;6.17;2.63;;;9.80;99.90;;;;;;5007978;28;20450;-71
2023/03/09 05:07:26;;;;;;;6.70;2.53;;;9.80;99.90;;;;;;5006813;28;20960;-72
2023/03/09 05:10:13;;;;;;;4.80;2.67;;;9.80;99.90;;;;;;5007535;28;20574;-71
2023/03/09 05:12:58;;;;;;;5.40;2.50;;;9.80;99.90;;;;;;5007537;28;20446;-71
2023/03/09 05:15:45;;;;;;;4.40;2.73;;;9.90;99.90;;;;;;5005511;28;20819;-71
2023/03/09 05:18:31;;;;;;;7.47;3.10;;;9.90;99.90;;;;;;5007642;28;20630;-72
2023/03/09 05:21:16;;;;;;;5.67;2.57;;;9.90;99.90;;;;;;5016108;28;20455;-71
2023/03/09 05:24:02;;;;;;;6.60;3.50;;;9.80;99.90;;;;;;5011955;28;20603;-71
2023/03/09 05:26:48;;;;;;;6.40;2.80;;;9.90;99.90;;;;;;5001184;28;20475;-71
2023/03/09 05:29:34;;;;;;;7.43;2.40;;;9.90;99.90;;;;;;5009492;28;20444;-71
2023/03/09 05:32:21;;;;;;;4.80;2.50;;;9.90;99.90;;;;;;5008200;28;20446;-71
2023/03/09 05:35:07;;;;;;;9.50;3.50;;;9.90;99.90;;;;;;5005756;28;20451;-71
2023/03/09 05:37:53;;;;;;;8.23;3.13;;;9.90;99.90;;;;;;5014183;28;20535;-71
2023/03/09 05:40:39;;;;;;;8.10;3.80;;;9.90;99.90;;;;;;5008233;28;20475;-71
2023/03/09 05:43:25;;;;;;;15.37;3.00;;;9.80;99.90;;;;;;5007952;28;20996;-71
2023/03/09 05:46:11;;;;;;;5.23;2.23;;;9.90;99.90;;;;;;5003065;28;20804;-71
2023/03/09 05:48:58;;;;;;;14.13;4.90;;;9.90;99.90;;;;;;5006242;28;20494;-71
2023/03/09 05:51:43;;;;;;;8.43;2.60;;;9.90;99.90;;;;;;5007719;28;20448;-71
2023/03/09 05:54:29;;;;;;;15.40;2.60;;;9.90;99.90;;;;;;5008308;28;20469;-71
2023/03/09 05:57:15;;;;;;;7.50;4.83;;;9.90;99.90;;;;;;5006872;28;20495;-71
2023/03/09 06:00:00;;;;;;;7.23;2.50;;;10.00;99.90;;;;;;5009249;28;20511;-71
2023/03/09 06:02:46;;;;;;;12.00;4.00;;;9.90;99.90;;;;;;5004295;28;21058;-72
2023/03/09 06:05:33;;;;;;;9.87;2.10;;;9.90;99.90;;;;;;5004442;28;20472;-71
2023/03/09 06:08:18;;;;;;;12.07;3.00;;;9.90;99.90;;;;;;5016457;28;20413;-72
2023/03/09 06:11:04;;;;;;;10.03;2.43;;;10.00;99.90;;;;;;5019958;28;21081;-72
2023/03/09 06:13:54;;;;;;;6.20;2.00;;;9.90;99.90;;;;;;5017826;28;20629;-71
2023/03/09 06:16:39;;;;;;;7.13;1.77;;;9.90;99.90;;;;;;5004542;28;20456;-72
2023/03/09 06:19:25;;;;;;;17.90;3.43;;;9.90;99.90;;;;;;5023488;28;20919;-71
2023/03/09 06:22:12;;;;;;;8.33;3.30;;;9.90;99.90;;;;;;5025815;28;20439;-72
2023/03/09 06:24:58;;;;;;;10.27;2.67;;;9.80;99.90;;;;;;5009613;28;20527;-71
2023/03/09 06:27:44;;;;;;;10.57;2.60;;;9.80;99.90;;;;;;5012290;28;20450;-71
2023/03/09 06:30:30;;;;;;;7.43;2.70;;;9.70;99.90;;;;;;5013785;28;20471;-71
2023/03/09 06:33:16;;;;;;;8.80;4.27;;;9.70;99.90;;;;;;5010331;28;21938;-70
2023/03/09 06:36:01;;;;;;;20.57;11.20;;;9.70;99.90;;;;;;5008978;28;20451;-72
2023/03/09 06:38:48;;;;;;;10.23;4.33;;;9.70;99.90;;;;;;5015675;28;20551;-72
2023/03/09 06:41:34;;;;;;;11.23;4.03;;;9.60;99.90;;;;;;5011467;28;20447;-72
2023/03/09 06:44:19;;;;;;;14.87;2.83;;;9.60;99.90;;;;;;5024973;28;20553;-70
2023/03/09 06:47:05;;;;;;;8.50;3.90;;;9.60;99.90;;;;;;5002542;28;20456;-72
2023/03/09 06:49:52;;;;;;;8.27;2.90;;;9.60;99.90;;;;;;5002012;28;21003;-72
2023/03/09 06:52:38;;;;;;;9.07;3.97;;;9.60;99.90;;;;;;5005569;28;21042;-72
2023/03/09 06:55:24;;;;;;;14.10;3.83;;;9.60;99.90;;;;;;5008272;28;20518;-72
2023/03/09 06:58:10;;;;;;;11.70;4.07;;;9.60;99.90;;;;;;5013713;28;20550;-71
2023/03/09 07:00:56;;;;;;;13.07;4.00;;;9.60;99.90;;;;;;5013101;28;20436;-71
2023/03/09 07:03:42;;;;;;;10.33;3.33;;;9.60;99.90;;;;;;5014961;28;20466;-72
2023/03/09 07:06:28;;;;;;;9.97;3.20;;;9.70;99.90;;;;;;5003843;28;20443;-72
2023/03/09 07:09:14;;;;;;;9.73;3.50;;;9.70;99.90;;;;;;5009333;28;20553;-71
2023/03/09 07:12:01;;;;;;;22.20;7.87;;;9.70;99.90;;;;;;5015797;28;20820;-71
2023/03/09 07:14:47;;;;;;;32.77;11.90;;;9.70;99.90;;;;;;5014370;28;20459;-70
2023/03/09 07:17:33;;;;;;;18.57;8.37;;;9.60;99.90;;;;;;5006713;28;20456;-69
2023/03/09 07:20:18;;;;;;;10.87;4.40;;;9.70;99.90;;;;;;5004196;28;20510;-72
2023/03/09 07:23:04;;;;;;;7.30;2.67;;;9.70;99.90;;;;;;5007460;28;20476;-71
2023/03/09 07:25:50;;;;;;;16.67;4.10;;;9.70;99.90;;;;;;5004989;28;20583;-71
2023/03/09 07:28:37;;;;;;;11.00;2.70;;;9.80;99.90;;;;;;5008189;28;20436;-71
2023/03/09 07:31:22;;;;;;;11.40;2.47;;;9.80;99.90;;;;;;5014676;28;20444;-71
2023/03/09 07:34:08;;;;;;;17.00;2.90;;;9.80;99.90;;;;;;5027710;22;20472;-70
2023/03/09 07:36:53;;;;;;;7.00;2.00;;;9.80;99.90;;;;;;5040442;28;20445;-70
2023/03/09 07:39:39;;;;;;;10.93;2.73;;;9.80;99.90;;;;;;5019036;28;20624;-71
2023/03/09 07:42:25;;;;;;;9.17;2.63;;;9.80;99.90;;;;;;5028481;28;20466;-72
2023/03/09 07:45:12;;;;;;;12.90;2.43;;;9.80;99.90;;;;;;5022199;28;20446;-71
2023/03/09 07:47:58;;;;;;;14.43;3.33;;;9.80;99.90;;;;;;5037889;28;20425;-72
2023/03/09 07:50:44;;;;;;;13.90;3.30;;;9.80;99.90;;;;;;5036428;28;20409;-71
2023/03/09 07:53:31;;;;;;;14.10;2.53;;;9.90;99.90;;;;;;5031713;28;20447;-71
2023/03/09 07:56:17;;;;;;;9.17;3.07;;;9.90;99.90;;;;;;5030935;28;20455;-71
2023/03/09 07:59:03;;;;;;;9.80;2.23;;;9.90;99.90;;;;;;5037234;28;20483;-72
2023/03/09 08:01:51;;;;;;;11.07;3.00;;;9.80;99.90;;;;;;5028675;28;20427;-71
2023/03/09 08:04:36;;;;;;;17.07;2.50;;;9.90;99.90;;;;;;5023852;28;20574;-72
2023/03/09 08:07:22;;;;;;;12.43;2.73;;;10.00;99.90;;;;;;5027687;28;20589;-71
2023/03/09 08:10:09;;;;;;;11.00;2.50;;;9.90;99.90;;;;;;5020381;28;20459;-71
2023/03/09 08:12:55;;;;;;;11.17;2.77;;;9.90;99.90;;;;;;5025266;28;20450;-71
2023/03/09 08:15:40;;;;;;;8.43;3.00;;;9.90;99.90;;;;;;5022460;28;20517;-71
2023/03/09 08:18:28;;;;;;;7.07;2.50;;;9.80;99.90;;;;;;5025960;28;20548;-71
2023/03/09 08:21:14;;;;;;;6.37;2.20;;;9.80;99.90;;;;;;5024185;28;20439;-71
2023/03/09 08:24:00;;;;;;;22.90;2.53;;;9.90;99.90;;;;;;5026445;28;20581;-71
2023/03/09 08:26:46;;;;;;;5.27;2.50;;;9.90;99.90;;;;;;5025897;28;20554;-72
2023/03/09 08:29:32;;;;;;;9.27;3.03;;;9.90;99.90;;;;;;5022476;28;20524;-71
2023/03/09 08:32:17;;;;;;;8.50;3.20;;;9.90;99.90;;;;;;5024812;28;20810;-71
2023/03/09 08:35:05;;;;;;;16.43;4.00;;;9.90;99.90;;;;;;5028161;28;20529;-71
2023/03/09 08:37:50;;;;;;;9.00;3.57;;;9.90;99.90;;;;;;5033890;28;20442;-71
2023/03/09 08:40:37;;;;;;;10.53;3.17;;;9.90;99.90;;;;;;5022878;28;20454;-72
2023/03/09 08:43:23;;;;;;;13.57;5.43;;;9.90;99.90;;;;;;5026589;28;20900;-71
2023/03/09 08:46:09;;;;;;;10.70;3.77;;;9.90;99.90;;;;;;5031483;28;20779;-71
2023/03/09 08:48:56;;;;;;;15.37;4.60;;;9.80;99.90;;;;;;5029917;28;20450;-71
2023/03/09 08:51:43;;;;;;;8.63;3.23;;;9.80;99.90;;;;;;5025938;28;20812;-71
2023/03/09 08:54:29;;;;;;;9.43;4.10;;;9.90;99.90;;;;;;5034876;28;20455;-71
2023/03/09 08:57:14;;;;;;;7.77;3.50;;;9.90;99.90;;;;;;5037756;28;20401;-71
2023/03/09 08:59:59;;;;;;;9.50;5.17;;;9.90;99.90;;;;;;5027417;28;20478;-71
2023/03/09 09:02:45;;;;;;;7.37;3.63;;;9.90;99.90;;;;;;5026918;28;20550;-71
2023/03/09 09:05:31;;;;;;;13.63;3.40;;;9.80;99.90;;;;;;5026248;28;20454;-72
2023/03/09 09:08:18;;;;;;;4.00;3.50;;;9.80;99.90;;;;;;5031294;28;20532;-71
2023/03/09 09:11:06;;;;;;;12.50;4.90;;;9.80;99.90;;;;;;5027145;28;20824;-71
2023/03/09 09:13:54;;;;;;;9.13;4.23;;;9.80;99.90;;;;;;5029495;28;20524;-71
2023/03/09 09:16:40;;;;;;;11.50;3.33;;;9.80;99.90;;;;;;5027100;28;20445;-71
2023/03/09 09:19:26;;;;;;;8.23;3.10;;;9.90;99.90;;;;;;5027981;28;20730;-71
2023/03/09 09:22:11;;;;;;;12.87;4.30;;;9.90;99.90;;;;;;5033929;28;20438;-71
2023/03/09 09:24:58;;;;;;;9.87;3.60;;;9.80;99.90;;;;;;5029402;28;20548;-71
2023/03/09 09:27:44;;;;;;;9.30;3.40;;;9.80;99.90;;;;;;5027797;28;20708;-71
2023/03/09 09:30:32;;;;;;;6.43;3.00;;;9.90;99.90;;;;;;5032219;28;20450;-71
2023/03/09 09:33:17;;;;;;;8.33;2.80;;;9.90;99.90;;;;;;5035282;28;20425;-71
2023/03/09 09:36:05;;;;;;;5.87;2.80;;;9.90;99.90;;;;;;5028668;28;20479;-71
2023/03/09 09:38:53;;;;;;;8.83;2.60;;;10.00;99.90;;;;;;5020612;28;20466;-71
2023/03/09 09:41:43;;;;;;;17.00;2.20;;;10.00;99.90;;;;;;5034488;28;20458;-71
2023/03/09 09:44:33;;;;;;;9.37;2.77;;;10.00;99.90;;;;;;5028912;28;20479;-71
2023/03/09 09:47:21;;;;;;;6.40;2.60;;;10.00;99.90;;;;;;5032626;28;21081;-71
2023/03/09 09:50:14;;;;;;;8.00;2.20;;;10.10;99.90;;;;;;5028158;28;20807;-71
2023/03/09 09:53:06;;;;;;;12.40;2.60;;;10.10;99.90;;;;;;5032993;28;20585;-71
2023/03/09 09:55:53;;;;;;;10.80;2.50;;;10.10;99.90;;;;;;5029749;28;20958;-71
2023/03/09 09:58:47;;;;;;;11.37;2.77;;;10.20;99.90;;;;;;5019350;28;20462;-71
2023/03/09 10:01:40;;;;;;;8.27;2.77;;;10.20;99.90;;;;;;5028679;28;20448;-71
2023/03/09 10:04:31;;;;;;;11.27;2.97;;;10.10;99.90;;;;;;5023119;28;21012;-71
2023/03/09 10:07:19;;;;;;;10.30;2.73;;;10.20;99.90;;;;;;5027846;28;20443;-71
2023/03/09 10:10:12;;;;;;;5.37;2.30;;;10.20;99.90;;;;;;5027670;28;20579;-71
2023/03/09 10:13:01;;;;;;;7.80;3.03;;;10.20;99.90;;;;;;5026689;28;20474;-71
2023/03/09 10:15:49;;;;;;;9.10;2.30;;;10.30;99.90;;;;;;5026404;28;20463;-71
2023/03/09 10:18:40;;;;;;;18.20;3.00;;;10.30;99.90;;;;;;5022499;28;22479;-71
2023/03/09 10:21:33;;;;;;;14.33;3.30;;;10.30;99.90;;;;;;5027245;28;20530;-71
2023/03/09 10:24:23;;;;;;;9.63;2.80;;;10.30;99.90;;;;;;5036177;28;20469;-71
2023/03/09 10:27:19;;;;;;;6.17;2.63;;;10.40;99.90;;;;;;5032424;28;20600;-71
2023/03/09 10:30:13;;;;;;;8.97;2.93;;;10.40;99.90;;;;;;5029288;28;20538;-71
2023/03/09 10:33:06;;;;;;;11.30;2.67;;;10.50;99.90;;;;;;5021845;28;20558;-71
2023/03/09 10:35:59;;;;;;;9.83;2.60;;;10.50;99.90;;;;;;5022865;28;21129;-71
2023/03/09 10:38:45;;;;;;;6.83;3.00;;;10.60;99.90;;;;;;5017384;28;20964;-71
2023/03/09 10:41:30;;;;;;;7.17;2.53;;;10.50;99.90;;;;;;5033338;28;20484;-71
2023/03/09 10:44:19;;;;;;;12.73;4.40;;;10.60;99.90;;;;;;5036622;28;20939;-71
2023/03/09 10:47:05;;;;;;;16.50;2.77;;;10.60;99.90;;;;;;5033249;28;20491;-71
2023/03/09 10:50:13;;;;;;;9.60;2.53;;;10.60;99.90;;;;;;5025344;28;20443;-71
2023/03/09 10:53:15;;;;;;;14.23;3.27;;;10.70;99.90;;;;;;5022600;28;20946;-71
2023/03/09 10:56:14;;;;;;;12.10;2.77;;;10.70;99.90;;;;;;5030970;28;20614;-71
2023/03/09 10:59:18;;;;;;;13.50;2.50;;;10.70;99.90;;;;;;5027505;28;20466;-71
2023/03/09 11:02:30;;;;;;;9.37;2.73;;;10.70;99.90;;;;;;5031383;28;20449;-71
2023/03/09 11:05:21;;;;;;;10.90;3.03;;;10.70;99.90;;;;;;5032991;28;21011;-71
2023/03/09 11:08:23;;;;;;;12.57;2.73;;;10.70;99.90;;;;;;5030510;28;20463;-71
2023/03/09 11:11:20;;;;;;;11.27;2.93;;;10.80;99.90;;;;;;5034127;28;20815;-71
2023/03/09 11:14:17;;;;;;;10.23;2.43;;;10.80;99.90;;;;;;5027733;28;20466;-71
2023/03/09 11:17:03;;;;;;;10.17;2.47;;;10.80;99.90;;;;;;5029808;28;20830;-71
2023/03/09 11:19:49;;;;;;;12.50;4.00;;;10.90;99.90;;;;;;5025343;28;20449;-70
2023/03/09 11:22:37;;;;;;;11.83;2.93;;;10.90;99.90;;;;;;5029437;28;20590;-72
2023/03/09 11:25:35;;;;;;;11.00;4.10;;;10.90;99.90;;;;;;5023157;28;20557;-71
2023/03/09 11:28:31;;;;;;;12.97;2.80;;;11.00;99.90;;;;;;5025614;28;20600;-71
2023/03/09 11:31:19;;;;;;;7.00;1.90;;;11.00;99.90;;;;;;5037708;28;21017;-71
2023/03/09 11:34:08;;;;;;;12.73;2.30;;;11.10;99.90;;;;;;5029190;28;20471;-71
2023/03/09 11:36:58;;;;;;;6.57;2.00;;;11.10;99.90;;;;;;5023578;28;20492;-71
2023/03/09 11:39:50;;;;;;;7.53;1.70;;;11.10;99.90;;;;;;5022496;28;21400;-71
2023/03/09 11:42:40;;;;;;;8.83;2.00;;;11.20;99.90;;;;;;5021617;28;20953;-71
2023/03/09 11:45:29;;;;;;;3.77;1.60;;;11.20;99.90;;;;;;5026292;28;20832;-70
2023/03/09 11:48:21;;;;;;;5.43;1.50;;;11.30;99.90;;;;;;5031496;28;20442;-71
2023/03/09 11:51:12;;;;;;;4.87;1.90;;;11.40;99.90;;;;;;5035911;28;20511;-71
2023/03/09 11:54:02;;;;;;;5.40;1.60;;;11.50;99.90;;;;;;5033033;28;20554;-70
2023/03/09 11:56:50;;;;;;;6.37;1.53;;;11.60;99.90;;;;;;5021673;28;20460;-71
2023/03/09 11:59:41;;;;;;;5.83;2.23;;;11.60;99.90;;;;;;5027267;28;21131;-70
2023/03/09 12:02:34;;;;;;;4.87;1.40;;;11.60;99.90;;;;;;5018583;28;20458;-70
2023/03/09 12:05:20;;;;;;;5.40;1.80;;;11.60;99.90;;;;;;5021941;28;20621;-69
2023/03/09 12:08:13;;;;;;;5.93;1.93;;;11.70;99.90;;;;;;5024366;28;20535;-70
2023/03/09 12:11:05;;;;;;;7.63;2.00;;;11.80;99.90;;;;;;5023422;28;20456;-71
2023/03/09 12:13:57;;;;;;;9.27;1.73;;;11.80;99.90;;;;;;5027569;28;20435;-72
2023/03/09 12:16:46;;;;;;;4.93;1.60;;;11.90;99.90;;;;;;5016808;28;20595;-70
2023/03/09 12:19:34;;;;;;;8.33;2.30;;;12.00;99.90;;;;;;5028841;28;20450;-72
2023/03/09 12:22:25;;;;;;;11.33;1.60;;;12.20;99.90;;;;;;5027052;28;20509;-69
2023/03/09 12:25:19;;;;;;;2.97;1.40;;;12.40;99.90;;;;;;5021664;28;20445;-71
2023/03/09 12:28:18;;;;;;;4.43;1.50;;;12.50;99.90;;;;;;5022536;28;20422;-71
2023/03/09 12:31:05;;;;;;;6.10;1.93;;;12.50;99.90;;;;;;5027882;28;20462;-69
2023/03/09 12:34:07;;;;;;;4.20;1.57;;;12.50;99.90;;;;;;5032568;28;20470;-69
2023/03/09 12:36:53;;;;;;;5.90;1.60;;;12.50;99.90;;;;;;5021599;28;20504;-69
2023/03/09 12:39:44;;;;;;;5.00;1.30;;;12.40;99.90;;;;;;5025947;28;20483;-70
2023/03/09 12:42:37;;;;;;;4.00;1.70;;;12.40;99.90;;;;;;5032137;28;20447;-69
2023/03/09 12:45:29;;;;;;;7.77;1.60;;;12.40;99.90;;;;;;5025476;28;20466;-69
2023/03/09 12:48:24;;;;;;;9.63;1.80;;;12.40;99.90;;;;;;5025028;28;20500;-69
2023/03/09 12:51:18;;;;;;;6.70;1.60;;;12.30;99.90;;;;;;5029499;28;20433;-71
2023/03/09 12:54:19;;;;;;;8.70;1.80;;;12.40;99.90;;;;;;5029845;28;20475;-72
2023/03/09 12:57:20;;;;;;;6.97;1.80;;;12.40;99.90;;;;;;5020782;28;20541;-71
2023/03/09 13:00:21;;;;;;;5.80;2.27;;;12.40;99.90;;;;;;5029684;28;20467;-71
2023/03/09 13:03:16;;;;;;;13.70;6.10;;;12.40;99.90;;;;;;5021539;28;20481;-71
2023/03/09 13:06:04;;;;;;;6.77;2.60;;;12.40;99.90;;;;;;5019763;28;20773;-71
2023/03/09 13:08:53;;;;;;;7.87;2.00;;;12.40;99.90;;;;;;5037358;28;20458;-71
2023/03/09 13:11:41;;;;;;;4.77;2.50;;;12.40;99.90;;;;;;5033766;28;20463;-71
2023/03/09 13:15:12;;;;;;;9.17;2.13;;;12.40;99.90;;;;;;5027626;28;20469;-71
2023/03/09 13:18:26;;;;;;;4.43;1.33;;;12.40;99.90;;;;;;5000562;28;20416;-71
2023/03/09 13:21:39;;;;;;;4.63;1.37;;;12.40;99.90;;;;;;5029725;28;20477;-71
2023/03/09 13:24:31;;;;;;;2.60;1.10;;;12.40;99.90;;;;;;5028295;28;22738;-71
2023/03/09 13:27:24;;;;;;;5.30;2.03;;;12.40;99.90;;;;;;5034312;28;20440;-71
2023/03/09 13:30:20;;;;;;;2.37;1.13;;;12.40;99.90;;;;;;5033812;28;20438;-71
2023/03/09 13:33:13;;;;;;;3.10;1.00;;;12.30;99.90;;;;;;5039190;28;20435;-71
2023/03/09 13:36:05;;;;;;;7.00;1.20;;;12.30;99.90;;;;;;5026264;28;20490;-71
2023/03/09 13:38:54;;;;;;;4.20;1.10;;;12.40;99.90;;;;;;5033100;28;20449;-71
2023/03/09 13:41:40;;;;;;;2.70;1.07;;;12.50;99.90;;;;;;5036166;28;20574;-71
2023/03/09 13:44:27;;;;;;;3.13;0.90;;;12.60;99.90;;;;;;5022226;28;21425;-71
2023/03/09 13:47:21;;;;;;;2.47;1.03;;;12.50;99.90;;;;;;5031516;28;20936;-71
2023/03/09 13:50:15;;;;;;;3.30;1.10;;;12.50;99.90;;;;;;5032179;28;20436;-71
2023/03/09 13:53:02;;;;;;;3.30;1.40;;;12.50;99.90;;;;;;5032514;28;20517;-71
2023/03/09 13:55:59;;;;;;;3.33;1.13;;;12.40;99.90;;;;;;5022036;28;20468;-71
2023/03/09 13:58:46;;;;;;;2.87;1.60;;;12.50;99.90;;;;;;5030959;28;20459;-71
2023/03/09 14:01:31;;;;;;;3.43;1.20;;;12.60;99.90;;;;;;5026758;28;20466;-71
2023/03/09 14:04:17;;;;;;;6.23;1.40;;;12.70;99.90;;;;;;5020636;28;20471;-71
2023/03/09 14:07:03;;;;;;;4.17;1.60;;;12.70;99.90;;;;;;5030155;28;20430;-71
2023/03/09 14:09:53;;;;;;;4.17;1.30;;;12.80;99.90;;;;;;5029500;28;20932;-71
2023/03/09 14:12:40;;;;;;;4.70;1.20;;;12.90;99.90;;;;;;5026241;28;20437;-71
2023/03/09 14:15:26;;;;;;;5.30;1.80;;;13.00;99.90;;;;;;5026610;28;20966;-71
2023/03/09 14:18:25;;;;;;;6.00;1.43;;;13.00;99.90;;;;;;5031064;28;20460;-71
2023/03/09 14:21:26;;;;;;;4.90;2.40;;;12.90;99.90;;;;;;5031457;28;20482;-71
2023/03/09 14:24:20;;;;;;;4.63;1.33;;;12.90;99.90;;;;;;5030664;28;20471;-71
2023/03/09 14:27:14;;;;;;;5.93;1.63;;;13.00;99.90;;;;;;5035991;28;20428;-71
2023/03/09 14:30:28;;;;;;;5.00;1.50;;;13.10;99.90;;;;;;5040581;28;20539;-71
2023/03/09 14:33:26;;;;;;;5.07;1.60;;;13.40;99.90;;;;;;5032220;28;20431;-71
2023/03/09 14:36:17;;;;;;;6.20;1.50;;;13.50;99.90;;;;;;5035017;28;20499;-71
2023/03/09 14:39:10;;;;;;;7.07;1.67;;;13.70;99.90;;;;;;5038447;28;20887;-71
2023/03/09 14:42:17;;;;;;;5.47;1.63;;;13.80;99.90;;;;;;5039919;28;20524;-71